Bourneville, Ohio
Current Conditions -  °F | °C
As of 1:54 PM on Friday 24 Oct 2014 (Local Time) from KRZT Reporting Station
Clear Clear  
Wind Chill: 63°   Ceiling: Unl
Heat Index: 63°   Visibility: 10mi
Dew Point: 37°   Wind: 6mph
Humidity: 39%   Direction: 310°NW
Pressure: 30.08"   Gusts: NA
Location:  39.28°N, 83.16°W
Report Text: KRZT 241754Z AUTO 31005KT 10SM CLR 17/03 A3008 RMK AO2
Loading
Personal Weather Stations






























Interactive Weather Map
Tropical Storm Tracking
New forecast layout! Learn more

10-Day Weather Forecast

Advertisements
Track Severe Weather on mobile